Time;durP1;ratioP1;P1;durP2;ratioP2;P2;SDS_P1;SDS_P2;PMS_P1;PMS_P2;Temp;Humidity;BMP_temperature;BMP_pressure;BME280_temperature;BME280_humidity;BME280_pressure;Samples;Min_cycle;Max_cycle;Signal;HPM_P1;HPM_P2
2022/10/05 00:01:22;;;;;;;24.67;17.73;;;;;;;9.48;100.00;-8514.56;5114928;28;20298;-63
2022/10/05 00:03:49;;;;;;;26.50;20.17;;;;;;;9.42;100.00;-8832.16;5115034;28;20187;-63
2022/10/05 00:06:16;;;;;;;32.43;19.90;;;;;;;9.49;100.00;-10105.00;5114181;28;20646;-63
2022/10/05 00:08:43;;;;;;;32.70;21.70;;;;;;;9.54;100.00;-10423.56;5115005;28;20685;-63
2022/10/05 00:11:13;;;;;;;26.53;20.13;;;;;;;9.56;100.00;-10423.78;5114553;28;20186;-64
2022/10/05 00:13:40;;;;;;;33.17;20.87;;;;;;;9.77;100.00;-10426.22;5114826;28;20566;-63
2022/10/05 00:16:15;;;;;;;37.17;22.87;;;;;;;9.68;100.00;-9152.72;5114767;28;20290;-63
2022/10/05 00:18:45;;;;;;;38.03;24.37;;;;;;;9.71;100.00;-8516.53;5114459;28;20187;-62
2022/10/05 00:21:25;;;;;;;42.03;25.47;;;;;;;9.61;100.00;-7242.66;5114807;28;20210;-63
2022/10/05 00:23:54;;;;;;;45.30;24.60;;;;;;;9.52;100.00;-6923.81;5114552;28;20189;-64
2022/10/05 00:26:22;;;;;;;38.13;23.37;;;;;;;9.64;100.00;-6924.53;5114333;28;20184;-62
2022/10/05 00:28:50;;;;;;;43.70;24.63;;;;;;;9.64;100.00;-6287.75;5114603;28;20194;-62
2022/10/05 00:31:21;;;;;;;40.83;23.07;;;;;;;9.52;100.00;-5968.72;5114472;28;20202;-64
2022/10/05 00:33:49;;;;;;;46.53;24.73;;;;;;;9.63;100.00;-6924.47;5114129;28;20198;-64
2022/10/05 00:36:16;;;;;;;43.07;24.97;;;;;;;9.61;100.00;-6924.31;5114400;28;20685;-63
2022/10/05 00:38:44;;;;;;;39.43;25.07;;;;;;;9.77;100.00;-6925.28;5114349;28;20630;-62
2022/10/05 00:41:18;;;;;;;42.00;25.10;;;;;;;9.48;100.00;-6605.22;5113893;28;20275;-63
2022/10/05 00:44:16;;;;;;;37.40;24.13;;;;;;;9.48;100.00;-5650.16;5113875;28;20193;-63
2022/10/05 00:46:55;;;;;;;45.93;24.57;;;;;;;9.55;100.00;-5650.44;5113902;28;20184;-63
2022/10/05 00:49:40;;;;;;;37.43;23.33;;;;;;;9.66;100.00;-5013.78;5113906;28;20270;-63
2022/10/05 00:52:20;;;;;;;36.03;23.20;;;;;;;9.57;100.00;-4057.84;5113745;28;20199;-63
2022/10/05 00:54:52;;;;;;;33.37;23.17;;;;;;;9.76;100.00;-4695.47;5113703;28;20179;-63
2022/10/05 00:57:34;;;;;;;41.23;24.27;;;;;;;9.82;100.00;-4376.91;5114152;28;20206;-63
2022/10/05 01:00:07;;;;;;;38.73;22.77;;;;;;;9.80;100.00;-3101.84;5113670;28;20283;-64
2022/10/05 01:02:50;;;;;;;28.97;21.63;;;;;;;9.72;100.00;-1507.56;5113437;28;20215;-64
2022/10/05 01:05:32;;;;;;;30.80;22.53;;;;;;;9.83;100.00;88.06;5113528;28;20184;-62
2022/10/05 01:08:06;;;;;;;32.30;22.97;;;;;;;9.68;100.00;406.38;5113338;28;20183;-63
2022/10/05 01:10:42;;;;;;;34.47;22.13;;;;;;;9.77;100.00;87.75;5113389;28;20193;-63
2022/10/05 01:13:18;;;;;;;28.17;22.07;;;;;;;9.78;100.00;-869.41;5113193;28;20184;-63
2022/10/05 01:15:49;;;;;;;27.60;21.77;;;;;;;9.56;100.00;-551.28;5113243;28;20191;-63
2022/10/05 01:18:24;;;;;;;29.00;22.20;;;;;;;9.39;100.00;-233.16;5113609;28;20183;-63
2022/10/05 01:20:59;;;;;;;29.80;22.43;;;;;;;9.52;100.00;-870.38;5113025;28;20230;-64
2022/10/05 01:24:06;;;;;;;32.03;22.40;;;;;;;9.49;100.00;-1189.34;5113327;28;20229;-63
2022/10/05 01:27:11;;;;;;;38.07;20.80;;;;;;;9.34;100.00;-233.38;5113486;28;20209;-63
2022/10/05 01:29:45;;;;;;;29.30;20.77;;;;;;;9.07;100.00;-553.34;5113111;28;20190;-62
2022/10/05 01:32:24;;;;;;;27.10;19.67;;;;;;;9.25;100.00;-1190.13;5113056;28;20189;-63
2022/10/05 01:34:59;;;;;;;31.10;20.90;;;;;;;9.07;100.00;-2783.47;5113304;28;20183;-63
2022/10/05 01:37:32;;;;;;;32.90;21.23;;;;;;;9.13;100.00;-4693.91;5113182;28;20633;-63
2022/10/05 01:40:07;;;;;;;29.97;21.60;;;;;;;9.19;100.00;-5012.41;5112770;28;20179;-63
2022/10/05 01:42:44;;;;;;;27.80;21.57;;;;;;;9.02;100.00;-4693.66;5112772;28;20202;-63
2022/10/05 01:45:23;;;;;;;37.80;23.43;;;;;;;9.26;100.00;-5012.63;5112779;28;20191;-63
2022/10/05 01:47:57;;;;;;;35.07;22.00;;;;;;;9.29;100.00;-3420.44;5112648;28;20183;-64
2022/10/05 01:50:33;;;;;;;37.43;21.63;;;;;;;9.17;100.00;-2783.41;5112647;28;20227;-62
2022/10/05 01:53:08;;;;;;;30.90;20.20;;;;;;;9.01;100.00;-2465.03;5112926;28;20205;-63
2022/10/05 01:55:41;;;;;;;30.07;19.90;;;;;;;9.00;100.00;-4057.03;5112602;28;20251;-63
2022/10/05 01:58:18;;;;;;;26.63;20.63;;;;;;;9.10;100.00;-4375.53;5112737;28;20184;-63
2022/10/05 02:00:55;;;;;;;37.80;21.77;;;;;;;9.12;100.00;-5012.19;5112538;28;20350;-63
2022/10/05 02:03:28;;;;;;;24.97;20.47;;;;;;;9.26;100.00;-4375.81;5112686;28;20203;-63
2022/10/05 02:05:59;;;;;;;27.43;20.40;;;;;;;9.09;100.00;-3101.91;5112377;28;20187;-63
2022/10/05 02:08:31;;;;;;;30.97;20.00;;;;;;;8.94;100.00;-3101.94;5112289;28;20270;-63
2022/10/05 02:11:01;;;;;;;30.03;20.53;;;;;;;9.00;100.00;-3420.31;5112245;28;20190;-63
2022/10/05 02:13:35;;;;;;;44.27;22.97;;;;;;;8.93;100.00;-3101.94;5112208;28;20176;-63
2022/10/05 02:16:07;;;;;;;30.63;21.37;;;;;;;9.02;100.00;-2465.03;5112486;28;20183;-62
2022/10/05 02:18:39;;;;;;;36.20;21.73;;;;;;;9.03;100.00;-2146.50;5112140;28;20198;-63
2022/10/05 02:21:08;;;;;;;34.10;21.37;;;;;;;8.77;100.00;-3738.47;5112056;28;20233;-63
2022/10/05 02:23:39;;;;;;;32.23;21.23;;;;;;;8.75;100.00;-4056.66;5112112;28;20214;-63
2022/10/05 02:26:08;;;;;;;36.10;21.67;;;;;;;8.74;100.00;-4692.94;5112096;28;20274;-63
2022/10/05 02:28:42;;;;;;;30.67;20.63;;;;;;;8.85;100.00;-5011.38;5111652;28;20187;-62
2022/10/05 02:31:14;;;;;;;26.37;20.10;;;;;;;8.79;100.00;-5647.38;5111913;28;20187;-63
2022/10/05 02:33:40;;;;;;;25.20;20.13;;;;;;;8.85;100.00;-5647.63;5112380;28;20179;-62
2022/10/05 02:36:13;;;;;;;26.03;19.53;;;;;;;8.85;100.00;-5329.53;5111973;28;20274;-62
2022/10/05 02:38:54;;;;;;;28.17;18.93;;;;;;;8.62;100.00;-4056.47;5112070;28;20191;-62
2022/10/05 02:41:36;;;;;;;27.43;20.03;;;;;;;8.99;100.00;-4693.56;5112031;28;20183;-63
2022/10/05 02:44:15;;;;;;;27.13;18.93;;;;;;;8.84;100.00;-5329.50;5111873;28;20186;-63
2022/10/05 02:46:51;;;;;;;25.20;18.10;;;;;;;8.93;100.00;-5329.81;5111962;28;20183;-62
2022/10/05 02:49:25;;;;;;;22.20;17.93;;;;;;;8.86;100.00;-5011.41;5112148;28;20215;-64
2022/10/05 02:52:02;;;;;;;26.77;19.03;;;;;;;9.01;100.00;-4375.34;5111984;28;20274;-62
2022/10/05 02:54:42;;;;;;;25.23;18.70;;;;;;;8.91;100.00;-4375.16;5112142;28;20187;-62
2022/10/05 02:57:20;;;;;;;23.23;18.63;;;;;;;9.03;100.00;-4693.66;5112145;28;20687;-63
2022/10/05 02:59:54;;;;;;;21.73;17.73;;;;;;;9.12;100.00;-4693.91;5112073;28;20266;-63
2022/10/05 03:02:26;;;;;;;24.77;18.37;;;;;;;9.04;100.00;-4057.09;5111671;28;20213;-63
2022/10/05 03:05:03;;;;;;;23.43;18.53;;;;;;;9.12;100.00;-3738.81;5111698;28;20183;-63
2022/10/05 03:07:35;;;;;;;20.63;17.77;;;;;;;9.14;100.00;-3101.91;5111702;28;20243;-64
2022/10/05 03:10:12;;;;;;;21.17;18.67;;;;;;;9.14;100.00;-2783.41;5111724;28;20184;-64
2022/10/05 03:12:52;;;;;;;19.90;16.93;;;;;;;9.09;100.00;-3738.78;5111989;28;20270;-64
2022/10/05 03:15:44;;;;;;;21.93;16.67;;;;;;;9.22;100.00;-4694.13;5112117;28;20244;-63
2022/10/05 03:18:24;;;;;;;20.50;17.13;;;;;;;9.39;100.00;-4694.56;5111583;28;20261;-63
2022/10/05 03:20:59;;;;;;;16.77;14.83;;;;;;;9.42;100.00;-4376.16;5111459;28;20266;-63
2022/10/05 03:23:36;;;;;;;16.60;15.03;;;;;;;9.54;100.00;-4057.81;5111712;28;20255;-63
2022/10/05 03:26:19;;;;;;;18.83;14.97;;;;;;;9.60;100.00;-3101.88;5111564;28;20228;-63
2022/10/05 03:28:57;;;;;;;20.70;15.50;;;;;;;9.58;100.00;-1507.94;5111816;28;20187;-63
2022/10/05 03:31:31;;;;;;;19.63;16.13;;;;;;;9.68;100.00;-1188.75;5111445;28;20195;-63
2022/10/05 03:34:05;;;;;;;16.07;14.67;;;;;;;9.76;100.00;-550.47;5111473;28;20189;-62
2022/10/05 03:36:42;;;;;;;21.23;14.73;;;;;;;9.80;100.00;87.91;5111540;28;20192;-62
2022/10/05 03:39:14;;;;;;;16.60;14.90;;;;;;;9.71;100.00;1044.84;5111697;28;20656;-63
2022/10/05 03:41:47;;;;;;;15.23;14.13;;;;;;;9.63;100.00;1682.66;5115165;28;20208;-62
2022/10/05 03:44:30;;;;;;;15.27;13.77;;;;;;;9.72;100.00;2321.88;5115096;28;20206;-63
2022/10/05 03:47:11;;;;;;;14.53;13.20;;;;;;;9.78;100.00;2641.81;5115401;28;20606;-63
2022/10/05 03:49:53;;;;;;;15.20;13.53;;;;;;;9.80;100.00;4558.81;5115296;28;20630;-62
2022/10/05 03:52:26;;;;;;;16.47;13.73;;;;;;;9.70;100.00;5196.69;5114889;28;20179;-62
2022/10/05 03:54:59;;;;;;;15.07;13.77;;;;;;;9.76;100.00;5836.72;5097367;28;20222;-63
2022/10/05 03:57:29;;;;;;;14.90;13.40;;;;;;;9.78;100.00;6476.44;5114860;28;20190;-64
2022/10/05 04:00:03;;;;;;;15.60;13.37;;;;;;;9.61;100.00;6473.91;5114669;28;20183;-63
2022/10/05 04:02:34;;;;;;;17.17;13.40;;;;;;;9.75;100.00;6156.34;5114952;28;20292;-63
2022/10/05 04:05:12;;;;;;;15.80;14.40;;;;;;;9.71;100.00;7114.91;5114910;28;20259;-63
2022/10/05 04:07:45;;;;;;;22.20;14.87;;;;;;;9.56;100.00;4875.34;5114921;28;20187;-63
2022/10/05 04:10:17;;;;;;;20.33;16.17;;;;;;;9.59;100.00;4556.28;5114892;28;20626;-63
2022/10/05 04:12:51;;;;;;;16.60;14.90;;;;;;;9.27;100.00;4552.25;5114886;28;20177;-63
2022/10/05 04:15:27;;;;;;;22.27;16.63;;;;;;;9.54;100.00;4555.59;5114333;28;20188;-64
2022/10/05 04:18:00;;;;;;;23.47;19.10;;;;;;;9.46;100.00;2000.47;5114505;28;20187;-62
2022/10/05 04:20:35;;;;;;;18.87;16.97;;;;;;;9.50;100.00;2000.81;5096159;28;20273;-62
2022/10/05 04:23:12;;;;;;;21.17;16.97;;;;;;;9.38;100.00;2638.03;5114515;28;20267;-63
2022/10/05 04:25:44;;;;;;;23.33;18.13;;;;;;;9.47;100.00;1043.22;5114575;28;20645;-62
2022/10/05 04:28:16;;;;;;;33.63;24.13;;;;;;;9.63;100.00;-231.97;5114534;28;20672;-62
2022/10/05 04:30:47;;;;;;;33.67;19.47;;;;;;;9.80;100.00;-869.31;5114293;28;20201;-62
2022/10/05 04:33:14;;;;;;;25.47;18.83;;;;;;;10.00;100.00;1046.81;5096772;28;20206;-63
2022/10/05 04:36:10;;;;;;;20.03;17.97;;;;;;;10.26;100.00;4564.63;5114280;28;20231;-62
2022/10/05 04:38:59;;;;;;;26.20;17.67;;;;;;;10.41;100.00;9368.28;5106778;28;20255;-63
2022/10/05 04:41:49;;;;;;;21.23;18.63;;;;;;;10.74;100.00;13865.16;5113964;28;20275;-63
2022/10/05 04:44:37;;;;;;;25.87;18.00;;;;;;;10.93;100.00;16761.38;5114470;28;20203;-63
2022/10/05 04:47:18;;;;;;;18.53;16.10;;;;;;;11.44;100.00;25472.53;5114224;28;20650;-63
2022/10/05 04:49:58;;;;;;;20.83;17.17;;;;;;;12.27;100.00;36507.03;5113948;28;20198;-63
2022/10/05 04:52:38;;;;;;;17.80;15.10;;;;;;;12.96;100.00;80290.19;5113727;28;20188;-63
2022/10/05 04:55:12;;;;;;;24.70;15.30;;;;;;;12.97;100.00;137833.53;5114172;28;20189;-63
2022/10/05 04:57:45;;;;;;;18.23;13.47;;;;;;;13.18;100.00;145738.34;5113977;28;20545;-64
2022/10/05 05:00:23;;;;;;;15.03;13.10;;;;;;;13.08;100.00;149327.22;5113949;28;20183;-63
2022/10/05 05:03:15;;;;;;;13.37;12.33;;;;;;;13.08;100.00;145744.94;5113574;28;20217;-63
2022/10/05 05:05:50;;;;;;;13.27;11.93;;;;;;;12.85;100.00;133895.91;5113864;28;20188;-65
2022/10/05 05:08:33;;;;;;;10.90;9.93;;;;;;;12.88;100.00;132568.75;5113527;28;20191;-63
2022/10/05 05:11:22;;;;;;;10.83;8.60;;;;;;;12.87;100.00;130233.31;5113347;28;20215;-63
2022/10/05 05:14:27;;;;;;;12.00;8.43;;;;;;;13.11;100.00;140915.81;5113623;28;20562;-64
2022/10/05 05:17:04;;;;;;;7.93;7.33;;;;;;;13.07;100.00;144104.44;5113380;28;20187;-55
2022/10/05 05:19:43;;;;;;;10.33;8.00;;;;;;;13.35;100.00;137012.88;5113181;28;20233;-55
2022/10/05 05:22:20;;;;;;;9.40;7.17;;;;;;;13.48;100.00;149426.09;5113471;28;20624;-64
2022/10/05 05:25:09;;;;;;;6.83;6.03;;;;;;;13.72;100.00;149486.91;5113097;28;20207;-64
2022/10/05 05:27:43;;;;;;;11.77;6.40;;;;;;;13.68;100.00;149478.03;5113114;28;20187;-64
2022/10/05 05:30:20;;;;;;;6.67;5.60;;;;;;;13.75;100.00;149494.47;5113045;28;20180;-64
2022/10/05 05:32:57;;;;;;;6.70;5.47;;;;;;;13.76;100.00;149497.03;5113227;28;20595;-66
2022/10/05 05:36:07;;;;;;;12.50;6.50;;;;;;;13.90;100.00;149532.53;5113115;28;20274;-64
2022/10/05 05:38:37;;;;;;;8.83;6.00;;;;;;;13.66;100.00;149472.94;5113137;28;20183;-66
2022/10/05 05:41:11;;;;;;;8.90;5.10;;;;;;;13.56;100.00;149446.34;5112992;28;20203;-64
2022/10/05 05:43:51;;;;;;;7.33;4.97;;;;;;;13.64;100.00;149467.91;5112695;28;20211;-65
2022/10/05 05:46:25;;;;;;;6.90;5.10;;;;;;;13.75;100.00;149494.47;5112707;28;20179;-64
2022/10/05 05:48:56;;;;;;;8.50;6.93;;;;;;;13.67;100.00;149474.22;5112910;28;20206;-65
2022/10/05 05:51:28;;;;;;;6.47;5.47;;;;;;;13.76;100.00;149495.75;5112853;28;20276;-66
2022/10/05 05:54:13;;;;;;;9.93;6.37;;;;;;;13.78;100.00;149502.13;5112419;28;20187;-64
2022/10/05 05:56:48;;;;;;;14.83;7.57;;;;;;;13.67;100.00;149474.22;5112807;28;20587;-65
2022/10/05 05:59:20;;;;;;;13.40;7.23;;;;;;;13.85;100.00;149519.84;5112500;28;20237;-65
2022/10/05 06:01:51;;;;;;;7.57;6.90;;;;;;;13.96;100.00;149546.50;5112567;28;20641;-65
2022/10/05 06:04:24;;;;;;;12.47;7.30;;;;;;;14.08;100.00;149578.19;5111856;28;20692;-64
2022/10/05 06:06:53;;;;;;;33.40;8.30;;;;;;;14.13;100.00;149590.81;5112228;28;20183;-65
2022/10/05 06:09:26;;;;;;;32.87;9.27;;;;;;;14.26;100.00;149621.28;5112474;28;20180;-64
2022/10/05 06:11:58;;;;;;;22.17;8.17;;;;;;;13.92;100.00;149537.56;5112668;28;20184;-65
2022/10/05 06:14:29;;;;;;;17.07;8.20;;;;;;;13.81;100.00;149509.72;5112648;28;20184;-65
2022/10/05 06:17:03;;;;;;;18.13;8.17;;;;;;;13.93;100.00;149540.13;5112417;28;20190;-66
2022/10/05 06:19:34;;;;;;;10.40;8.37;;;;;;;13.89;100.00;149528.72;5112322;28;20234;-65
2022/10/05 06:22:13;;;;;;;15.47;9.17;;;;;;;13.80;100.00;149505.88;5114935;27;20251;-64
2022/10/05 06:24:46;;;;;;;25.80;10.17;;;;;;;13.96;100.00;149546.50;5133359;27;20232;-65
2022/10/05 06:27:26;;;;;;;18.30;9.03;;;;;;;14.02;100.00;149561.66;5132462;27;20244;-65
2022/10/05 06:30:06;;;;;;;16.40;8.93;;;;;;;14.03;100.00;149565.50;5132744;27;20236;-64
2022/10/05 06:32:42;;;;;;;14.93;9.03;;;;;;;14.33;100.00;149640.28;5132527;27;20179;-65
2022/10/05 06:35:25;;;;;;;13.17;8.77;;;;;;;14.63;100.00;149716.41;5129562;27;20209;-67
2022/10/05 06:38:16;;;;;;;14.87;9.50;;;;;;;14.66;100.00;149722.72;5111928;28;20202;-66
2022/10/05 06:40:59;;;;;;;10.03;9.00;;;;;;;14.95;100.00;149796.28;5112194;28;20188;-65
2022/10/05 06:43:48;;;;;;;9.50;8.67;;;;;;;15.38;100.00;149902.84;5094165;28;20203;-66
2022/10/05 06:46:22;;;;;;;9.50;8.63;;;;;;;15.68;100.00;149977.75;5112430;28;20652;-65
2022/10/05 06:49:10;;;;;;;8.90;8.03;;;;;;;16.12;100.00;150088.22;5112314;28;20192;-67
2022/10/05 06:51:48;;;;;;;8.93;7.80;;;;;;;16.55;100.00;150197.38;5114808;28;20206;-66
2022/10/05 06:54:31;;;;;;;7.37;6.43;;;;;;;17.03;100.00;150318.09;5112513;28;20179;-66
2022/10/05 06:57:04;;;;;;;7.23;6.23;;;;;;;17.50;100.00;150434.97;5112701;28;20633;-65
2022/10/05 06:59:43;;;;;;;7.40;6.17;;;;;;;17.86;100.00;150526.56;5127057;28;20309;-66
2022/10/05 07:02:19;;;;;;;7.63;6.33;;;;;;;18.37;100.00;150654.97;5132890;28;20251;-66
2022/10/05 07:05:10;;;;;;;8.20;5.70;;;;;;;18.86;100.00;150777.09;5132311;28;20251;-67
2022/10/05 07:07:46;;;;;;;7.63;3.60;;;;;;;19.48;100.00;150934.91;5119534;28;20648;-67
2022/10/05 07:10:23;;;;;;;4.00;3.57;;;;;;;19.82;100.00;151020.16;5133454;28;20548;-68
2022/10/05 07:13:00;;;;;;;3.13;2.93;;;;;;;20.66;100.00;151230.34;5133192;28;20187;-65
2022/10/05 07:15:42;;;;;;;2.90;2.80;;;;;;;21.11;100.00;151344.97;5135961;27;20560;-65
2022/10/05 07:18:36;;;;;;;6.60;3.55;;;;;;;21.08;100.00;151337.34;5136391;27;20200;-67
2022/10/05 07:21:15;;;;;;;11.05;2.70;;;;;;;21.38;100.00;151413.84;5136441;27;20245;-69
2022/10/05 07:23:52;;;;;;;3.88;2.90;;;;;;;21.76;96.85;151509.44;5135950;27;20236;-66
2022/10/05 07:26:24;;;;;;;3.67;3.30;;;;;;;21.98;95.85;151563.03;5136347;27;20183;-67
2022/10/05 07:29:11;;;;;;;11.38;4.25;;;;;;;21.65;96.35;151481.38;5136287;27;20187;-68
2022/10/05 07:31:48;;;;;;;4.13;3.78;;;;;;;22.18;94.90;151615.28;5136337;27;20273;-67
2022/10/05 07:34:24;;;;;;;9.23;4.10;;;;;;;22.65;91.96;151732.59;5136640;27;20204;-67
2022/10/05 07:39:52;;;;;;;8.32;7.82;;;;;;;22.59;96.01;151717.28;5135484;27;20240;-69
2022/10/05 07:42:32;;;;;;;6.65;6.20;;;;;;;22.89;90.36;151793.88;5136626;27;20233;-68
2022/10/05 07:45:08;;;;;;;9.27;7.30;;;;;;;23.49;88.42;151944.47;5136287;27;20210;-68
2022/10/05 07:47:40;;;;;;;6.78;5.85;;;;;;;24.00;85.73;152074.69;5135786;27;20606;-67
2022/10/05 07:50:18;;;;;;;6.88;6.35;;;;;;;23.79;86.19;152019.78;5136458;27;20266;-68
2022/10/05 07:52:54;;;;;;;2.90;2.70;;;;;;;23.88;76.42;152042.75;5136796;27;20192;-68
2022/10/05 07:58:24;;;;;;;4.15;2.38;;;;;;;24.50;72.45;152201.13;5136098;27;20680;-67
2022/10/05 08:01:10;;;;;;;3.17;1.60;;;;;;;25.05;66.99;152337.81;5136415;27;20179;-67
2022/10/05 08:03:51;;;;;;;2.03;1.92;;;;;;;25.29;63.58;152399.19;5137045;27;20699;-67
2022/10/05 08:06:35;;;;;;;3.00;2.03;;;;;;;26.01;62.76;152580.69;5135797;27;20214;-67
2022/10/05 08:09:12;;;;;;;5.63;1.77;;;;;;;26.75;57.94;152769.94;5136339;27;20282;-68
2022/10/05 08:11:51;;;;;;;2.28;2.00;;;;;;;27.39;53.23;152929.88;5136401;27;20333;-68
2022/10/05 08:14:32;;;;;;;3.20;1.88;;;;;;;28.07;48.85;153102.69;5135550;27;20185;-69
2022/10/05 08:17:03;;;;;;;3.22;1.75;;;;;;;27.94;49.41;153070.69;5135717;27;20579;-67
2022/10/05 08:19:39;;;;;;;1.83;1.73;;;;;;;28.96;46.33;153328.13;5134882;27;20329;-67
2022/10/05 08:22:11;;;;;;;1.40;1.40;;;;;;;28.43;46.27;153194.88;5134994;27;20661;-69
2022/10/05 08:24:46;;;;;;;1.17;1.17;;;;;;;28.01;46.56;153087.31;5113892;27;20229;-68
2022/10/05 08:27:19;;;;;;;2.72;1.50;;;;;;;28.23;45.79;153143.69;5109898;28;20191;-67
2022/10/05 08:29:55;;;;;;;1.60;1.50;;;;;;;28.55;45.99;153225.66;5114865;28;20184;-68
2022/10/05 08:32:25;;;;;;;3.25;1.95;;;;;;;29.08;45.76;153357.56;5099259;28;20629;-67
2022/10/05 08:34:59;;;;;;;3.30;1.70;;;;;;;29.23;44.25;153397.28;5094204;28;20267;-68
2022/10/05 08:37:31;;;;;;;2.40;2.17;;;;;;;29.55;41.77;153476.75;5093995;28;20180;-68
2022/10/05 08:40:26;;;;;;;1.90;1.40;;;;;;;30.15;40.14;153629.28;5093665;28;20184;-68
2022/10/05 08:43:28;;;;;;;2.00;1.90;;;;;;;30.37;40.08;153685.69;5078529;28;20551;-68
2022/10/05 08:46:16;;;;;;;1.60;1.50;;;;;;;30.20;39.89;153642.09;5092304;28;20287;-69
2022/10/05 08:49:03;;;;;;;2.13;2.03;;;;;;;30.56;39.97;153734.41;5097135;27;20627;-68
2022/10/05 08:51:57;;;;;;;1.58;1.58;;;;;;;31.25;37.46;153908.84;5123069;27;20628;-68
2022/10/05 08:54:51;;;;;;;1.30;1.30;;;;;;;32.26;34.97;154164.19;5126510;27;20547;-65
2022/10/05 08:57:45;;;;;;;1.45;1.40;;;;;;;32.28;35.92;154170.66;5134607;27;20189;-67
2022/10/05 09:00:17;;;;;;;2.35;2.25;;;;;;;30.97;37.46;153838.28;5125464;27;20195;-68
2022/10/05 09:03:18;;;;;;;1.98;1.70;;;;;;;31.46;36.23;153961.41;5135294;27;20538;-68
2022/10/05 09:06:13;;;;;;;1.48;1.45;;;;;;;31.88;35.54;154069.22;5134701;27;20244;-67
2022/10/05 09:09:12;;;;;;;1.65;1.00;;;;;;;32.22;33.10;154153.94;5134663;27;20183;-67
2022/10/05 09:11:47;;;;;;;1.95;1.20;;;;;;;32.48;33.01;154221.97;5135099;27;20534;-67
2022/10/05 09:14:28;;;;;;;1.10;1.10;;;;;;;32.53;32.79;154233.50;5116661;27;20178;-68
2022/10/05 09:17:32;;;;;;;3.70;1.50;;;;;;;33.26;33.55;154418.47;5134873;27;20649;-64
2022/10/05 09:20:24;;;;;;;1.60;1.58;;;;;;;33.76;32.34;154546.91;5050842;28;20227;-69
2022/10/05 09:22:59;;;;;;;3.25;1.30;;;;;;;32.82;32.95;154306.72;5112416;28;20623;-65
2022/10/05 09:25:41;;;;;;;1.10;1.10;;;;;;;32.61;31.69;154254.03;5114643;28;20203;-65
2022/10/05 09:28:24;;;;;;;1.40;1.30;;;;;;;33.78;31.56;154552.03;5109006;28;20239;-66
2022/10/05 09:31:02;;;;;;;1.88;1.77;;;;;;;34.32;30.84;154688.25;5113927;28;20640;-67
2022/10/05 09:34:15;;;;;;;1.10;1.10;;;;;;;34.22;30.17;154662.53;5114281;28;20193;-68
2022/10/05 09:37:27;;;;;;;1.25;1.25;;;;;;;33.68;29.22;154525.09;5109177;28;20551;-67
2022/10/05 09:40:51;;;;;;;1.27;1.27;;;;;;;32.81;30.46;154304.13;5113176;28;20618;-66
2022/10/05 09:43:52;;;;;;;2.05;0.90;;;;;;;32.84;31.67;154313.16;5020098;28;20198;-65
2022/10/05 09:46:51;;;;;;;1.00;1.00;;;;;;;33.89;29.78;154579.03;5113470;28;20215;-67
2022/10/05 09:49:51;;;;;;;5.80;2.88;;;;;;;34.04;29.92;154616.22;5110747;28;20283;-68
2022/10/05 09:52:44;;;;;;;2.72;2.63;;;;;;;33.53;30.68;154489.06;5080127;28;20200;-67
2022/10/05 09:55:50;;;;;;;1.98;1.30;;;;;;;33.57;30.74;154498.03;5102177;28;20281;-66
2022/10/05 09:58:57;;;;;;;1.08;1.08;;;;;;;32.23;30.96;154157.81;5069656;28;20282;-67
2022/10/05 10:01:50;;;;;;;1.25;1.20;;;;;;;29.50;33.16;153465.22;5113739;27;20573;-67
2022/10/05 10:04:32;;;;;;;1.33;1.23;;;;;;;28.81;35.37;153289.72;5129975;27;20198;-67
2022/10/05 10:07:32;;;;;;;1.15;1.05;;;;;;;29.47;34.55;153458.81;5133851;27;20186;-67
2022/10/05 10:10:42;;;;;;;1.85;0.95;;;;;;;31.68;33.75;154019.19;5126834;27;20199;-67
2022/10/05 10:13:38;;;;;;;1.08;1.08;;;;;;;31.94;33.36;154084.63;5133885;27;20214;-68
2022/10/05 10:16:30;;;;;;;1.30;1.20;;;;;;;32.83;32.38;154309.28;5133714;27;20213;-66
2022/10/05 10:19:26;;;;;;;1.20;1.20;;;;;;;33.51;31.20;154482.66;5107319;28;20225;-67
2022/10/05 10:22:19;;;;;;;1.30;1.30;;;;;;;33.75;31.42;154544.31;5112498;28;20183;-67
2022/10/05 10:25:02;;;;;;;1.30;1.20;;;;;;;34.66;29.13;154774.38;5108424;28;20201;-66
2022/10/05 10:27:43;;;;;;;4.60;1.50;;;;;;;35.29;28.82;154935.06;5113011;28;20180;-67
2022/10/05 10:30:44;;;;;;;1.73;1.13;;;;;;;35.84;27.43;155075.22;5113147;28;20188;-67
2022/10/05 10:33:32;;;;;;;1.80;1.70;;;;;;;34.01;28.97;154608.53;5112939;28;20190;-69
2022/10/05 10:36:03;;;;;;;2.33;1.40;;;;;;;34.79;29.84;154809.09;5112047;28;20203;-67
2022/10/05 10:38:37;;;;;;;1.30;1.20;;;;;;;35.78;28.32;155058.50;5112463;28;20183;-67
2022/10/05 10:41:39;;;;;;;1.10;1.10;;;;;;;35.62;26.61;155018.59;5121707;28;20201;-68
2022/10/05 10:44:49;;;;;;;2.45;1.25;;;;;;;34.29;28.75;154681.81;5112515;28;20561;-67
2022/10/05 10:47:31;;;;;;;1.73;1.17;;;;;;;33.82;28.42;154561.06;5112552;28;20185;-67
2022/10/05 10:50:23;;;;;;;2.55;1.23;;;;;;;34.88;27.79;154829.63;5116554;27;20199;-67
2022/10/05 10:53:15;;;;;;;2.15;1.10;;;;;;;34.50;27.92;154734.47;5128914;27;20208;-67
2022/10/05 10:55:53;;;;;;;2.67;1.05;;;;;;;32.13;29.62;154133.41;5132856;27;20218;-66
2022/10/05 10:58:57;;;;;;;1.50;1.23;;;;;;;30.37;32.62;153686.97;5137025;27;20178;-67
2022/10/05 11:01:34;;;;;;;4.40;1.42;;;;;;;29.85;32.83;153553.63;5143501;27;20204;-67
2022/10/05 11:04:39;;;;;;;2.70;1.73;;;;;;;29.37;35.66;153433.19;5156270;27;20197;-68
2022/10/05 11:07:53;;;;;;;2.60;1.58;;;;;;;26.55;40.82;152717.53;5155364;27;20230;-67
2022/10/05 11:11:05;;;;;;;2.50;2.08;;;;;;;24.94;47.17;152312.28;5053299;28;20204;-65
2022/10/05 11:13:54;;;;;;;3.97;2.13;;;;;;;24.30;49.24;152150.06;5028465;28;20201;-66
2022/10/05 11:16:57;;;;;;;4.10;1.88;;;;;;;23.33;53.85;151903.59;5050294;28;20719;-67
2022/10/05 11:19:51;;;;;;;2.35;1.63;;;;;;;22.86;56.08;151786.22;5047951;28;20236;-68
2022/10/05 11:22:36;;;;;;;1.88;1.83;;;;;;;22.31;59.87;151648.44;5044068;28;20201;-68
2022/10/05 11:25:30;;;;;;;4.82;1.90;;;;;;;21.94;64.92;151552.81;5033947;28;20205;-67
2022/10/05 11:28:15;;;;;;;1.92;1.58;;;;;;;21.11;71.67;151344.97;5037607;28;20206;-67
2022/10/05 11:31:15;;;;;;;2.17;2.00;;;;;;;21.08;72.70;151336.06;5016293;28;20202;-66
2022/10/05 11:34:24;;;;;;;1.70;1.60;;;;;;;20.92;72.51;151296.53;5008497;28;20198;-65
2022/10/05 11:37:14;;;;;;;1.88;1.77;;;;;;;20.84;72.42;151277.44;5032811;28;20206;-67
2022/10/05 11:39:44;;;;;;;3.13;1.70;;;;;;;20.77;75.14;151258.34;5014056;28;20632;-65
2022/10/05 11:42:48;;;;;;;2.35;1.90;;;;;;;20.76;73.48;151255.78;5107466;27;20203;-67
2022/10/05 11:45:26;;;;;;;1.80;1.70;;;;;;;20.69;75.25;151237.97;5095274;28;20611;-67
2022/10/05 11:48:27;;;;;;;1.60;1.50;;;;;;;20.56;74.65;151206.13;5094753;28;20191;-68
2022/10/05 11:51:17;;;;;;;2.60;1.70;;;;;;;20.35;77.95;151153.91;5101295;28;20207;-66
2022/10/05 11:53:56;;;;;;;2.27;1.80;;;;;;;20.45;79.97;151178.13;5115374;28;20666;-66
2022/10/05 11:56:29;;;;;;;1.93;1.83;;;;;;;20.52;75.56;151195.94;5115084;28;20202;-66
2022/10/05 11:59:02;;;;;;;3.27;1.50;;;;;;;20.40;77.58;151166.66;5104271;28;20205;-67
2022/10/05 12:01:38;;;;;;;1.80;1.30;;;;;;;20.32;78.53;151145.03;5093732;28;20188;-65
2022/10/05 12:04:17;;;;;;;2.90;2.03;;;;;;;20.26;81.10;151129.66;5113465;27;20663;-66
2022/10/05 12:07:03;;;;;;;1.33;1.33;;;;;;;20.27;79.60;151133.50;5100920;27;20241;-65
2022/10/05 12:12:43;;;;;;;5.90;5.40;;;;;;;20.16;78.50;151105.47;5132437;27;20679;-66
2022/10/05 12:15:22;;;;;;;2.10;1.63;;;;;;;20.06;79.63;151080.03;5135185;27;20202;-66
2022/10/05 12:17:56;;;;;;;2.77;1.50;;;;;;;20.24;78.13;151125.81;5134973;27;20277;-64
2022/10/05 12:20:31;;;;;;;1.83;1.33;;;;;;;20.30;79.29;151141.19;5149104;27;20244;-66
2022/10/05 12:23:05;;;;;;;1.50;1.43;;;;;;;20.29;79.86;151138.63;5156231;27;20181;-66
2022/10/05 12:25:36;;;;;;;1.95;1.60;;;;;;;20.24;80.25;151124.59;5134779;27;20193;-66
2022/10/05 12:28:12;;;;;;;3.03;1.60;;;;;;;20.12;83.47;151094.00;5140827;27;20569;-67
2022/10/05 12:31:17;;;;;;;2.50;1.90;;;;;;;20.18;84.69;151110.59;5156340;27;20185;-67